sensor_id;sensor_type;location;lat;lon;timestamp;temperature;humidity
47779;DHT22;33538;48.432;11.350;2023-12-07T00:01:05;1.40;99.90
47779;DHT22;33538;48.432;11.350;2023-12-07T00:03:32;1.40;99.90
47779;DHT22;33538;48.432;11.350;2023-12-07T00:06:00;1.40;99.90
47779;DHT22;33538;48.432;11.350;2023-12-07T00:08:27;1.30;99.90
47779;DHT22;33538;48.432;11.350;2023-12-07T00:10:54;1.30;99.90
47779;DHT22;33538;48.432;11.350;2023-12-07T00:13:21;1.30;99.90
47779;DHT22;33538;48.432;11.350;2023-12-07T00:15:47;1.20;99.90
47779;DHT22;33538;48.432;11.350;2023-12-07T00:18:14;1.20;99.90
47779;DHT22;33538;48.432;11.350;2023-12-07T00:20:41;1.20;99.90
47779;DHT22;33538;48.432;11.350;2023-12-07T00:23:09;1.20;99.90
47779;DHT22;33538;48.432;11.350;2023-12-07T00:25:36;1.20;99.90
47779;DHT22;33538;48.432;11.350;2023-12-07T00:28:03;1.20;99.90
47779;DHT22;33538;48.432;11.350;2023-12-07T00:30:30;1.20;99.90
47779;DHT22;33538;48.432;11.350;2023-12-07T00:32:57;1.20;99.90
47779;DHT22;33538;48.432;11.350;2023-12-07T00:35:24;1.20;99.90
47779;DHT22;33538;48.432;11.350;2023-12-07T00:37:50;1.20;99.90
47779;DHT22;33538;48.432;11.350;2023-12-07T00:40:18;1.20;99.90
47779;DHT22;33538;48.432;11.350;2023-12-07T00:42:45;1.20;99.90
47779;DHT22;33538;48.432;11.350;2023-12-07T00:45:12;1.10;99.90
47779;DHT22;33538;48.432;11.350;2023-12-07T00:47:39;1.10;99.90
47779;DHT22;33538;48.432;11.350;2023-12-07T00:50:07;1.10;99.90
47779;DHT22;33538;48.432;11.350;2023-12-07T00:52:34;1.10;99.90
47779;DHT22;33538;48.432;11.350;2023-12-07T00:55:01;1.10;99.90
47779;DHT22;33538;48.432;11.350;2023-12-07T00:57:39;1.10;99.90
47779;DHT22;33538;48.432;11.350;2023-12-07T01:00:07;1.10;99.90
47779;DHT22;33538;48.432;11.350;2023-12-07T01:02:34;1.00;99.90
47779;DHT22;33538;48.432;11.350;2023-12-07T01:05:01;1.10;99.90
47779;DHT22;33538;48.432;11.350;2023-12-07T01:07:28;1.10;99.90
47779;DHT22;33538;48.432;11.350;2023-12-07T01:09:54;1.10;99.90
47779;DHT22;33538;48.432;11.350;2023-12-07T01:12:22;1.10;99.90
47779;DHT22;33538;48.432;11.350;2023-12-07T01:14:50;1.10;99.90
47779;DHT22;33538;48.432;11.350;2023-12-07T01:17:17;1.00;99.90
47779;DHT22;33538;48.432;11.350;2023-12-07T01:19:44;1.10;99.90
47779;DHT22;33538;48.432;11.350;2023-12-07T01:22:10;1.00;99.90
47779;DHT22;33538;48.432;11.350;2023-12-07T01:24:37;1.00;99.90
47779;DHT22;33538;48.432;11.350;2023-12-07T01:27:04;1.10;99.90
47779;DHT22;33538;48.432;11.350;2023-12-07T01:29:31;1.00;99.90
47779;DHT22;33538;48.432;11.350;2023-12-07T01:31:59;1.00;99.90
47779;DHT22;33538;48.432;11.350;2023-12-07T01:34:26;1.00;99.90
47779;DHT22;33538;48.432;11.350;2023-12-07T01:36:53;1.00;99.90
47779;DHT22;33538;48.432;11.350;2023-12-07T01:39:20;1.10;99.90
47779;DHT22;33538;48.432;11.350;2023-12-07T01:41:46;1.10;99.90
47779;DHT22;33538;48.432;11.350;2023-12-07T01:44:13;1.10;99.90
47779;DHT22;33538;48.432;11.350;2023-12-07T01:46:40;1.10;99.90
47779;DHT22;33538;48.432;11.350;2023-12-07T01:49:09;1.10;99.90
47779;DHT22;33538;48.432;11.350;2023-12-07T01:51:36;1.10;99.90
47779;DHT22;33538;48.432;11.350;2023-12-07T01:54:03;1.10;99.90
47779;DHT22;33538;48.432;11.350;2023-12-07T01:56:30;1.10;99.90
47779;DHT22;33538;48.432;11.350;2023-12-07T01:58:57;1.10;99.90
47779;DHT22;33538;48.432;11.350;2023-12-07T02:01:24;1.10;99.90
47779;DHT22;33538;48.432;11.350;2023-12-07T02:03:51;1.10;99.90
47779;DHT22;33538;48.432;11.350;2023-12-07T02:06:20;1.10;99.90
47779;DHT22;33538;48.432;11.350;2023-12-07T02:08:46;1.10;99.90
47779;DHT22;33538;48.432;11.350;2023-12-07T02:11:13;1.10;99.90
47779;DHT22;33538;48.432;11.350;2023-12-07T02:13:41;1.10;99.90
47779;DHT22;33538;48.432;11.350;2023-12-07T02:18:58;1.20;99.90
47779;DHT22;33538;48.432;11.350;2023-12-07T02:21:33;1.10;99.90
47779;DHT22;33538;48.432;11.350;2023-12-07T02:24:03;1.10;99.90
47779;DHT22;33538;48.432;11.350;2023-12-07T02:26:33;1.10;99.90
47779;DHT22;33538;48.432;11.350;2023-12-07T02:29:00;1.10;99.90
47779;DHT22;33538;48.432;11.350;2023-12-07T02:31:27;1.10;99.90
47779;DHT22;33538;48.432;11.350;2023-12-07T02:33:55;1.10;99.90
47779;DHT22;33538;48.432;11.350;2023-12-07T02:36:23;1.10;99.90
47779;DHT22;33538;48.432;11.350;2023-12-07T02:38:51;1.10;99.90
47779;DHT22;33538;48.432;11.350;2023-12-07T02:41:20;1.10;99.90
47779;DHT22;33538;48.432;11.350;2023-12-07T02:43:49;1.10;99.90
47779;DHT22;33538;48.432;11.350;2023-12-07T02:46:16;1.10;99.90
47779;DHT22;33538;48.432;11.350;2023-12-07T02:48:42;1.10;99.90
47779;DHT22;33538;48.432;11.350;2023-12-07T02:51:09;1.10;99.90
47779;DHT22;33538;48.432;11.350;2023-12-07T02:53:36;1.10;99.90
47779;DHT22;33538;48.432;11.350;2023-12-07T02:56:04;1.10;99.90
47779;DHT22;33538;48.432;11.350;2023-12-07T02:58:31;1.10;99.90
47779;DHT22;33538;48.432;11.350;2023-12-07T03:00:59;1.10;99.90
47779;DHT22;33538;48.432;11.350;2023-12-07T03:03:26;1.10;99.90
47779;DHT22;33538;48.432;11.350;2023-12-07T03:05:53;1.10;99.90
47779;DHT22;33538;48.432;11.350;2023-12-07T03:08:20;1.20;99.90
47779;DHT22;33538;48.432;11.350;2023-12-07T03:10:46;1.20;99.90
47779;DHT22;33538;48.432;11.350;2023-12-07T03:13:13;1.20;99.90
47779;DHT22;33538;48.432;11.350;2023-12-07T03:15:41;1.20;99.90
47779;DHT22;33538;48.432;11.350;2023-12-07T03:18:09;1.20;99.90
47779;DHT22;33538;48.432;11.350;2023-12-07T03:20:36;1.20;99.90
47779;DHT22;33538;48.432;11.350;2023-12-07T03:23:03;1.20;99.90
47779;DHT22;33538;48.432;11.350;2023-12-07T03:25:29;1.20;99.90
47779;DHT22;33538;48.432;11.350;2023-12-07T03:27:56;1.20;99.90
47779;DHT22;33538;48.432;11.350;2023-12-07T03:30:23;1.20;99.90
47779;DHT22;33538;48.432;11.350;2023-12-07T03:32:50;1.20;99.90
47779;DHT22;33538;48.432;11.350;2023-12-07T03:35:18;1.20;99.90
47779;DHT22;33538;48.432;11.350;2023-12-07T03:37:45;1.20;99.90
47779;DHT22;33538;48.432;11.350;2023-12-07T03:40:12;1.30;99.90
47779;DHT22;33538;48.432;11.350;2023-12-07T03:42:39;1.30;99.90
47779;DHT22;33538;48.432;11.350;2023-12-07T03:45:22;1.30;99.90
47779;DHT22;33538;48.432;11.350;2023-12-07T03:47:48;1.30;99.90
47779;DHT22;33538;48.432;11.350;2023-12-07T03:50:16;1.40;99.90
47779;DHT22;33538;48.432;11.350;2023-12-07T03:52:44;1.30;99.90
47779;DHT22;33538;48.432;11.350;2023-12-07T03:55:11;1.30;99.90
47779;DHT22;33538;48.432;11.350;2023-12-07T03:57:38;1.30;99.90
47779;DHT22;33538;48.432;11.350;2023-12-07T04:00:06;1.20;99.90
47779;DHT22;33538;48.432;11.350;2023-12-07T04:02:33;1.20;99.90
47779;DHT22;33538;48.432;11.350;2023-12-07T04:05:00;1.20;99.90
47779;DHT22;33538;48.432;11.350;2023-12-07T04:07:26;1.20;99.90
47779;DHT22;33538;48.432;11.350;2023-12-07T04:09:54;1.20;99.90
47779;DHT22;33538;48.432;11.350;2023-12-07T04:12:22;1.20;99.90
47779;DHT22;33538;48.432;11.350;2023-12-07T04:14:49;1.20;99.90
47779;DHT22;33538;48.432;11.350;2023-12-07T04:17:16;1.20;99.90
47779;DHT22;33538;48.432;11.350;2023-12-07T04:19:43;1.20;99.90
47779;DHT22;33538;48.432;11.350;2023-12-07T04:22:10;1.20;99.90
47779;DHT22;33538;48.432;11.350;2023-12-07T04:24:37;1.20;99.90
47779;DHT22;33538;48.432;11.350;2023-12-07T04:27:05;1.20;99.90
47779;DHT22;33538;48.432;11.350;2023-12-07T04:29:32;1.30;99.90
47779;DHT22;33538;48.432;11.350;2023-12-07T04:31:59;1.20;99.90
47779;DHT22;33538;48.432;11.350;2023-12-07T04:34:26;1.20;99.90
47779;DHT22;33538;48.432;11.350;2023-12-07T04:36:53;1.20;99.90
47779;DHT22;33538;48.432;11.350;2023-12-07T04:39:19;1.10;99.90
47779;DHT22;33538;48.432;11.350;2023-12-07T04:41:46;1.10;99.90
47779;DHT22;33538;48.432;11.350;2023-12-07T04:44:14;1.10;99.90
47779;DHT22;33538;48.432;11.350;2023-12-07T04:46:42;1.10;99.90
47779;DHT22;33538;48.432;11.350;2023-12-07T04:49:09;1.00;99.90
47779;DHT22;33538;48.432;11.350;2023-12-07T04:51:36;1.00;99.90
47779;DHT22;33538;48.432;11.350;2023-12-07T04:54:03;1.00;99.90
47779;DHT22;33538;48.432;11.350;2023-12-07T04:56:42;1.00;99.90
47779;DHT22;33538;48.432;11.350;2023-12-07T04:59:09;1.00;99.90
47779;DHT22;33538;48.432;11.350;2023-12-07T05:01:37;1.00;99.90
47779;DHT22;33538;48.432;11.350;2023-12-07T05:04:05;1.00;99.90
47779;DHT22;33538;48.432;11.350;2023-12-07T05:06:32;1.00;99.90
47779;DHT22;33538;48.432;11.350;2023-12-07T05:08:59;1.00;99.90
47779;DHT22;33538;48.432;11.350;2023-12-07T05:11:26;1.00;99.90
47779;DHT22;33538;48.432;11.350;2023-12-07T05:13:53;1.00;99.90
47779;DHT22;33538;48.432;11.350;2023-12-07T05:16:20;1.00;99.90
47779;DHT22;33538;48.432;11.350;2023-12-07T05:18:48;1.00;99.90
47779;DHT22;33538;48.432;11.350;2023-12-07T05:21:15;0.90;99.90
47779;DHT22;33538;48.432;11.350;2023-12-07T05:23:47;0.90;99.90
47779;DHT22;33538;48.432;11.350;2023-12-07T05:26:15;0.90;99.90
47779;DHT22;33538;48.432;11.350;2023-12-07T05:28:47;0.90;99.90
47779;DHT22;33538;48.432;11.350;2023-12-07T05:31:18;0.90;99.90
47779;DHT22;33538;48.432;11.350;2023-12-07T05:33:52;0.90;99.90
47779;DHT22;33538;48.432;11.350;2023-12-07T05:36:20;0.90;99.90
47779;DHT22;33538;48.432;11.350;2023-12-07T05:38:48;0.90;99.90
47779;DHT22;33538;48.432;11.350;2023-12-07T05:41:16;0.90;99.90
47779;DHT22;33538;48.432;11.350;2023-12-07T05:43:44;0.80;99.90
47779;DHT22;33538;48.432;11.350;2023-12-07T05:46:11;0.80;99.90
47779;DHT22;33538;48.432;11.350;2023-12-07T05:48:40;0.80;99.90
47779;DHT22;33538;48.432;11.350;2023-12-07T05:51:17;0.80;99.90
47779;DHT22;33538;48.432;11.350;2023-12-07T05:53:51;0.60;99.90
47779;DHT22;33538;48.432;11.350;2023-12-07T05:56:21;0.70;99.90
47779;DHT22;33538;48.432;11.350;2023-12-07T05:58:51;0.70;99.90
47779;DHT22;33538;48.432;11.350;2023-12-07T06:01:21;0.70;99.90
47779;DHT22;33538;48.432;11.350;2023-12-07T06:03:52;0.70;99.90
47779;DHT22;33538;48.432;11.350;2023-12-07T06:06:22;0.60;99.90
47779;DHT22;33538;48.432;11.350;2023-12-07T06:08:50;0.70;99.90
47779;DHT22;33538;48.432;11.350;2023-12-07T06:11:18;0.70;99.90
47779;DHT22;33538;48.432;11.350;2023-12-07T06:13:46;0.60;99.90
47779;DHT22;33538;48.432;11.350;2023-12-07T06:16:14;0.60;99.90
47779;DHT22;33538;48.432;11.350;2023-12-07T06:18:44;0.50;99.90
47779;DHT22;33538;48.432;11.350;2023-12-07T06:21:14;0.50;99.90
47779;DHT22;33538;48.432;11.350;2023-12-07T06:23:42;0.50;99.90
47779;DHT22;33538;48.432;11.350;2023-12-07T06:26:10;0.40;99.90
47779;DHT22;33538;48.432;11.350;2023-12-07T06:28:38;0.30;99.90
47779;DHT22;33538;48.432;11.350;2023-12-07T06:31:06;0.20;99.90
47779;DHT22;33538;48.432;11.350;2023-12-07T06:33:36;0.30;99.90
47779;DHT22;33538;48.432;11.350;2023-12-07T06:36:05;0.30;99.90
47779;DHT22;33538;48.432;11.350;2023-12-07T06:38:33;0.30;99.90
47779;DHT22;33538;48.432;11.350;2023-12-07T06:41:01;0.30;99.90
47779;DHT22;33538;48.432;11.350;2023-12-07T06:43:29;0.20;99.90
47779;DHT22;33538;48.432;11.350;2023-12-07T06:45:57;0.20;99.90
47779;DHT22;33538;48.432;11.350;2023-12-07T06:48:25;0.10;99.90
47779;DHT22;33538;48.432;11.350;2023-12-07T06:50:52;0.10;99.90
47779;DHT22;33538;48.432;11.350;2023-12-07T06:53:20;0.10;99.90
47779;DHT22;33538;48.432;11.350;2023-12-07T06:55:47;0.10;99.90
47779;DHT22;33538;48.432;11.350;2023-12-07T06:58:15;0.10;99.90
47779;DHT22;33538;48.432;11.350;2023-12-07T07:00:43;0.10;99.90
47779;DHT22;33538;48.432;11.350;2023-12-07T07:03:10;0.10;99.90
47779;DHT22;33538;48.432;11.350;2023-12-07T07:05:37;0.10;99.90
47779;DHT22;33538;48.432;11.350;2023-12-07T07:08:05;0.10;99.90
47779;DHT22;33538;48.432;11.350;2023-12-07T07:10:33;0.00;99.90
47779;DHT22;33538;48.432;11.350;2023-12-07T07:13:00;0.00;99.90
47779;DHT22;33538;48.432;11.350;2023-12-07T07:15:29;0.10;99.90
47779;DHT22;33538;48.432;11.350;2023-12-07T07:17:56;0.10;99.90
47779;DHT22;33538;48.432;11.350;2023-12-07T07:20:24;0.00;99.90
47779;DHT22;33538;48.432;11.350;2023-12-07T07:22:51;0.00;99.90
47779;DHT22;33538;48.432;11.350;2023-12-07T07:25:18;-0.20;99.90
47779;DHT22;33538;48.432;11.350;2023-12-07T07:27:45;-0.20;99.90
47779;DHT22;33538;48.432;11.350;2023-12-07T07:30:12;-0.30;98.70
47779;DHT22;33538;48.432;11.350;2023-12-07T07:32:41;-0.30;99.90
47779;DHT22;33538;48.432;11.350;2023-12-07T07:35:08;-0.30;99.90
47779;DHT22;33538;48.432;11.350;2023-12-07T07:37:35;-0.30;99.90
47779;DHT22;33538;48.432;11.350;2023-12-07T07:40:02;-0.30;99.90
47779;DHT22;33538;48.432;11.350;2023-12-07T07:42:29;-0.30;99.90
47779;DHT22;33538;48.432;11.350;2023-12-07T07:44:55;-0.20;99.90
47779;DHT22;33538;48.432;11.350;2023-12-07T07:47:22;-0.30;99.90
47779;DHT22;33538;48.432;11.350;2023-12-07T07:49:51;-0.30;99.90
47779;DHT22;33538;48.432;11.350;2023-12-07T07:52:17;-0.30;99.90
47779;DHT22;33538;48.432;11.350;2023-12-07T07:54:44;-0.30;99.90
47779;DHT22;33538;48.432;11.350;2023-12-07T07:57:11;-0.30;99.90
47779;DHT22;33538;48.432;11.350;2023-12-07T07:59:38;-0.30;99.90
47779;DHT22;33538;48.432;11.350;2023-12-07T08:02:05;-0.20;99.90
47779;DHT22;33538;48.432;11.350;2023-12-07T08:04:31;-0.20;99.90
47779;DHT22;33538;48.432;11.350;2023-12-07T08:07:00;-0.20;99.90
47779;DHT22;33538;48.432;11.350;2023-12-07T08:09:26;-0.20;99.90
47779;DHT22;33538;48.432;11.350;2023-12-07T08:11:53;-0.10;99.90
47779;DHT22;33538;48.432;11.350;2023-12-07T08:14:20;-0.10;99.90
47779;DHT22;33538;48.432;11.350;2023-12-07T08:16:47;0.00;99.90
47779;DHT22;33538;48.432;11.350;2023-12-07T08:19:14;0.00;99.90
47779;DHT22;33538;48.432;11.350;2023-12-07T08:21:41;0.10;99.90
47779;DHT22;33538;48.432;11.350;2023-12-07T08:24:09;0.20;99.90
47779;DHT22;33538;48.432;11.350;2023-12-07T08:26:36;0.20;99.90
47779;DHT22;33538;48.432;11.350;2023-12-07T08:29:02;0.20;99.90
47779;DHT22;33538;48.432;11.350;2023-12-07T08:31:32;0.30;99.90
47779;DHT22;33538;48.432;11.350;2023-12-07T08:33:59;0.30;99.90
47779;DHT22;33538;48.432;11.350;2023-12-07T08:36:26;0.40;99.90
47779;DHT22;33538;48.432;11.350;2023-12-07T08:38:53;0.40;99.90
47779;DHT22;33538;48.432;11.350;2023-12-07T08:41:21;0.50;99.90
47779;DHT22;33538;48.432;11.350;2023-12-07T08:43:48;0.50;99.90
47779;DHT22;33538;48.432;11.350;2023-12-07T08:46:16;0.60;99.90
47779;DHT22;33538;48.432;11.350;2023-12-07T08:48:43;0.60;99.90
47779;DHT22;33538;48.432;11.350;2023-12-07T08:51:09;0.70;99.90
47779;DHT22;33538;48.432;11.350;2023-12-07T08:53:37;0.70;99.90
47779;DHT22;33538;48.432;11.350;2023-12-07T08:56:05;0.70;99.90
47779;DHT22;33538;48.432;11.350;2023-12-07T08:58:33;0.70;99.90
47779;DHT22;33538;48.432;11.350;2023-12-07T09:01:00;0.80;99.90
47779;DHT22;33538;48.432;11.350;2023-12-07T09:03:27;0.80;99.90
47779;DHT22;33538;48.432;11.350;2023-12-07T09:05:54;0.80;99.90
47779;DHT22;33538;48.432;11.350;2023-12-07T09:08:21;0.90;99.90
47779;DHT22;33538;48.432;11.350;2023-12-07T09:10:48;1.00;99.90
47779;DHT22;33538;48.432;11.350;2023-12-07T09:13:15;1.00;99.90
47779;DHT22;33538;48.432;11.350;2023-12-07T09:15:43;1.10;99.90
47779;DHT22;33538;48.432;11.350;2023-12-07T09:18:10;1.10;99.90
47779;DHT22;33538;48.432;11.350;2023-12-07T09:20:38;1.10;99.90
47779;DHT22;33538;48.432;11.350;2023-12-07T09:23:05;1.20;99.90
47779;DHT22;33538;48.432;11.350;2023-12-07T09:25:32;1.20;99.90
47779;DHT22;33538;48.432;11.350;2023-12-07T09:27:59;1.20;99.90
47779;DHT22;33538;48.432;11.350;2023-12-07T09:30:26;1.20;99.90
47779;DHT22;33538;48.432;11.350;2023-12-07T09:32:54;1.30;99.90
47779;DHT22;33538;48.432;11.350;2023-12-07T09:35:21;1.30;99.90
47779;DHT22;33538;48.432;11.350;2023-12-07T09:37:48;1.30;99.90
47779;DHT22;33538;48.432;11.350;2023-12-07T09:40:15;1.30;99.90
47779;DHT22;33538;48.432;11.350;2023-12-07T09:42:42;1.40;99.90
47779;DHT22;33538;48.432;11.350;2023-12-07T09:45:10;1.40;99.90
47779;DHT22;33538;48.432;11.350;2023-12-07T09:47:37;1.40;99.90
47779;DHT22;33538;48.432;11.350;2023-12-07T09:50:07;1.40;99.90
47779;DHT22;33538;48.432;11.350;2023-12-07T09:52:35;1.50;99.90
47779;DHT22;33538;48.432;11.350;2023-12-07T09:55:03;1.50;99.90
47779;DHT22;33538;48.432;11.350;2023-12-07T09:57:30;1.50;99.90
47779;DHT22;33538;48.432;11.350;2023-12-07T09:59:58;1.50;99.90
47779;DHT22;33538;48.432;11.350;2023-12-07T10:02:25;1.50;99.90
47779;DHT22;33538;48.432;11.350;2023-12-07T10:05:03;1.50;99.90
47779;DHT22;33538;48.432;11.350;2023-12-07T10:07:34;1.60;99.90
47779;DHT22;33538;48.432;11.350;2023-12-07T10:10:02;1.60;99.90
47779;DHT22;33538;48.432;11.350;2023-12-07T10:12:29;1.60;99.90
47779;DHT22;33538;48.432;11.350;2023-12-07T10:14:55;1.60;99.90
47779;DHT22;33538;48.432;11.350;2023-12-07T10:17:23;1.60;99.90
47779;DHT22;33538;48.432;11.350;2023-12-07T10:20:08;1.70;99.90
47779;DHT22;33538;48.432;11.350;2023-12-07T10:22:38;1.70;99.90
47779;DHT22;33538;48.432;11.350;2023-12-07T10:25:06;1.70;99.90
47779;DHT22;33538;48.432;11.350;2023-12-07T10:27:33;1.70;99.90
47779;DHT22;33538;48.432;11.350;2023-12-07T10:29:59;1.70;99.90
47779;DHT22;33538;48.432;11.350;2023-12-07T10:32:26;1.70;99.90
47779;DHT22;33538;48.432;11.350;2023-12-07T10:34:53;1.70;99.90
47779;DHT22;33538;48.432;11.350;2023-12-07T10:37:20;1.80;99.90
47779;DHT22;33538;48.432;11.350;2023-12-07T10:39:48;1.80;99.90
47779;DHT22;33538;48.432;11.350;2023-12-07T10:42:16;1.80;99.90
47779;DHT22;33538;48.432;11.350;2023-12-07T10:44:46;1.80;99.90
47779;DHT22;33538;48.432;11.350;2023-12-07T10:47:15;1.80;99.90
47779;DHT22;33538;48.432;11.350;2023-12-07T10:49:43;1.80;99.90
47779;DHT22;33538;48.432;11.350;2023-12-07T10:52:16;1.80;99.90
47779;DHT22;33538;48.432;11.350;2023-12-07T10:54:53;1.90;99.90
47779;DHT22;33538;48.432;11.350;2023-12-07T10:57:21;1.90;99.90
47779;DHT22;33538;48.432;11.350;2023-12-07T10:59:49;1.90;99.90
47779;DHT22;33538;48.432;11.350;2023-12-07T11:02:17;1.90;99.90
47779;DHT22;33538;48.432;11.350;2023-12-07T11:04:48;1.90;99.90
47779;DHT22;33538;48.432;11.350;2023-12-07T11:07:18;1.90;99.90
47779;DHT22;33538;48.432;11.350;2023-12-07T11:09:53;1.90;99.90
47779;DHT22;33538;48.432;11.350;2023-12-07T11:12:29;2.00;99.90
47779;DHT22;33538;48.432;11.350;2023-12-07T11:14:59;2.00;99.90
47779;DHT22;33538;48.432;11.350;2023-12-07T11:17:27;2.00;99.90
47779;DHT22;33538;48.432;11.350;2023-12-07T11:19:54;2.00;99.90
47779;DHT22;33538;48.432;11.350;2023-12-07T11:22:21;2.00;99.90
47779;DHT22;33538;48.432;11.350;2023-12-07T11:24:57;2.00;99.90
47779;DHT22;33538;48.432;11.350;2023-12-07T11:27:24;2.10;99.90
47779;DHT22;33538;48.432;11.350;2023-12-07T11:29:52;2.10;99.90
47779;DHT22;33538;48.432;11.350;2023-12-07T11:32:18;2.10;99.90
47779;DHT22;33538;48.432;11.350;2023-12-07T11:34:54;2.10;99.90
47779;DHT22;33538;48.432;11.350;2023-12-07T11:38:06;2.10;99.90
47779;DHT22;33538;48.432;11.350;2023-12-07T11:40:37;2.20;99.90
47779;DHT22;33538;48.432;11.350;2023-12-07T11:43:04;2.20;99.90
47779;DHT22;33538;48.432;11.350;2023-12-07T11:45:39;2.20;99.90
47779;DHT22;33538;48.432;11.350;2023-12-07T11:48:10;2.20;99.90
47779;DHT22;33538;48.432;11.350;2023-12-07T11:51:01;2.20;99.90
47779;DHT22;33538;48.432;11.350;2023-12-07T11:53:31;2.30;99.90
47779;DHT22;33538;48.432;11.350;2023-12-07T11:55:58;2.30;99.90
47779;DHT22;33538;48.432;11.350;2023-12-07T11:58:25;2.30;99.90
47779;DHT22;33538;48.432;11.350;2023-12-07T12:00:53;2.30;99.90
47779;DHT22;33538;48.432;11.350;2023-12-07T12:03:20;2.30;99.90
47779;DHT22;33538;48.432;11.350;2023-12-07T12:05:46;2.30;99.90
47779;DHT22;33538;48.432;11.350;2023-12-07T12:08:15;2.30;99.90
47779;DHT22;33538;48.432;11.350;2023-12-07T12:10:44;2.40;99.90
47779;DHT22;33538;48.432;11.350;2023-12-07T12:13:11;2.40;99.90
47779;DHT22;33538;48.432;11.350;2023-12-07T12:15:38;2.40;99.90
47779;DHT22;33538;48.432;11.350;2023-12-07T12:18:06;2.40;99.90
47779;DHT22;33538;48.432;11.350;2023-12-07T12:20:33;2.40;99.90
47779;DHT22;33538;48.432;11.350;2023-12-07T12:23:00;2.40;99.90
47779;DHT22;33538;48.432;11.350;2023-12-07T12:25:27;2.40;99.90
47779;DHT22;33538;48.432;11.350;2023-12-07T12:27:57;2.40;99.90
47779;DHT22;33538;48.432;11.350;2023-12-07T12:30:28;2.40;99.90
47779;DHT22;33538;48.432;11.350;2023-12-07T12:32:55;2.40;99.90
47779;DHT22;33538;48.432;11.350;2023-12-07T12:35:22;2.40;99.90
47779;DHT22;33538;48.432;11.350;2023-12-07T12:37:50;2.40;99.90
47779;DHT22;33538;48.432;11.350;2023-12-07T12:40:18;2.40;99.90
47779;DHT22;33538;48.432;11.350;2023-12-07T12:42:46;2.50;99.90
47779;DHT22;33538;48.432;11.350;2023-12-07T12:45:14;2.50;99.90
47779;DHT22;33538;48.432;11.350;2023-12-07T12:47:42;2.50;99.90
47779;DHT22;33538;48.432;11.350;2023-12-07T12:50:09;2.50;99.90
47779;DHT22;33538;48.432;11.350;2023-12-07T12:52:36;2.50;99.90
47779;DHT22;33538;48.432;11.350;2023-12-07T12:55:07;2.50;99.90
47779;DHT22;33538;48.432;11.350;2023-12-07T12:57:34;2.50;99.90
47779;DHT22;33538;48.432;11.350;2023-12-07T13:00:01;2.50;99.90
47779;DHT22;33538;48.432;11.350;2023-12-07T13:02:29;2.50;99.90
47779;DHT22;33538;48.432;11.350;2023-12-07T13:04:56;2.50;99.90
47779;DHT22;33538;48.432;11.350;2023-12-07T13:07:26;2.50;99.90
47779;DHT22;33538;48.432;11.350;2023-12-07T13:09:53;2.50;99.90
47779;DHT22;33538;48.432;11.350;2023-12-07T13:12:20;2.50;99.90
47779;DHT22;33538;48.432;11.350;2023-12-07T13:14:47;2.50;99.90
47779;DHT22;33538;48.432;11.350;2023-12-07T13:17:16;2.50;99.90
47779;DHT22;33538;48.432;11.350;2023-12-07T13:19:44;2.50;99.90
47779;DHT22;33538;48.432;11.350;2023-12-07T13:22:11;2.40;99.90
47779;DHT22;33538;48.432;11.350;2023-12-07T13:24:38;2.50;99.90
47779;DHT22;33538;48.432;11.350;2023-12-07T13:27:05;2.50;99.90
47779;DHT22;33538;48.432;11.350;2023-12-07T13:29:31;2.50;99.90
47779;DHT22;33538;48.432;11.350;2023-12-07T13:32:03;2.50;99.90
47779;DHT22;33538;48.432;11.350;2023-12-07T13:34:29;2.50;99.90
47779;DHT22;33538;48.432;11.350;2023-12-07T13:36:58;2.50;99.90
47779;DHT22;33538;48.432;11.350;2023-12-07T13:39:25;2.50;99.90
47779;DHT22;33538;48.432;11.350;2023-12-07T13:41:57;2.50;99.90
47779;DHT22;33538;48.432;11.350;2023-12-07T13:44:24;2.40;99.90
47779;DHT22;33538;48.432;11.350;2023-12-07T13:46:55;2.40;99.90
47779;DHT22;33538;48.432;11.350;2023-12-07T13:49:22;2.40;99.90
47779;DHT22;33538;48.432;11.350;2023-12-07T13:52:01;2.40;99.90
47779;DHT22;33538;48.432;11.350;2023-12-07T13:54:33;2.40;99.90
47779;DHT22;33538;48.432;11.350;2023-12-07T13:57:19;2.40;99.90
47779;DHT22;33538;48.432;11.350;2023-12-07T13:59:46;2.40;99.90
47779;DHT22;33538;48.432;11.350;2023-12-07T14:02:13;2.40;99.90
47779;DHT22;33538;48.432;11.350;2023-12-07T14:04:39;2.40;99.90
47779;DHT22;33538;48.432;11.350;2023-12-07T14:07:12;2.40;99.90
47779;DHT22;33538;48.432;11.350;2023-12-07T14:09:41;2.30;99.90
47779;DHT22;33538;48.432;11.350;2023-12-07T14:12:22;2.30;99.90
47779;DHT22;33538;48.432;11.350;2023-12-07T14:14:49;2.30;99.90
47779;DHT22;33538;48.432;11.350;2023-12-07T14:17:16;2.30;99.90
47779;DHT22;33538;48.432;11.350;2023-12-07T14:19:45;2.30;99.90
47779;DHT22;33538;48.432;11.350;2023-12-07T14:22:14;2.30;99.90
47779;DHT22;33538;48.432;11.350;2023-12-07T14:24:41;2.30;99.90
47779;DHT22;33538;48.432;11.350;2023-12-07T14:27:08;2.20;99.90
47779;DHT22;33538;48.432;11.350;2023-12-07T14:29:35;2.20;99.90
47779;DHT22;33538;48.432;11.350;2023-12-07T14:32:02;2.20;99.90
47779;DHT22;33538;48.432;11.350;2023-12-07T14:34:31;2.20;99.90
47779;DHT22;33538;48.432;11.350;2023-12-07T14:37:02;2.20;99.90
47779;DHT22;33538;48.432;11.350;2023-12-07T14:39:30;2.20;99.90
47779;DHT22;33538;48.432;11.350;2023-12-07T14:41:57;2.20;99.90
47779;DHT22;33538;48.432;11.350;2023-12-07T14:44:24;2.20;99.90
47779;DHT22;33538;48.432;11.350;2023-12-07T14:46:56;2.20;99.90
47779;DHT22;33538;48.432;11.350;2023-12-07T14:49:23;2.20;99.90
47779;DHT22;33538;48.432;11.350;2023-12-07T14:51:50;2.20;99.90
47779;DHT22;33538;48.432;11.350;2023-12-07T14:54:17;2.10;99.90
47779;DHT22;33538;48.432;11.350;2023-12-07T14:56:53;2.10;99.90
47779;DHT22;33538;48.432;11.350;2023-12-07T14:59:20;2.10;99.90
47779;DHT22;33538;48.432;11.350;2023-12-07T15:01:47;2.10;99.90
47779;DHT22;33538;48.432;11.350;2023-12-07T15:04:14;2.10;99.90
47779;DHT22;33538;48.432;11.350;2023-12-07T15:06:56;2.10;99.90
47779;DHT22;33538;48.432;11.350;2023-12-07T15:09:23;2.10;99.90
47779;DHT22;33538;48.432;11.350;2023-12-07T15:11:50;2.10;99.90
47779;DHT22;33538;48.432;11.350;2023-12-07T15:14:18;2.10;99.50
47779;DHT22;33538;48.432;11.350;2023-12-07T15:17:02;2.00;99.70
47779;DHT22;33538;48.432;11.350;2023-12-07T15:19:29;2.00;99.90
47779;DHT22;33538;48.432;11.350;2023-12-07T15:21:56;2.00;98.90
47779;DHT22;33538;48.432;11.350;2023-12-07T15:24:23;2.00;99.50
47779;DHT22;33538;48.432;11.350;2023-12-07T15:27:02;1.90;99.40
47779;DHT22;33538;48.432;11.350;2023-12-07T15:29:30;1.90;99.90
47779;DHT22;33538;48.432;11.350;2023-12-07T15:31:57;1.90;98.30
47779;DHT22;33538;48.432;11.350;2023-12-07T15:34:23;1.90;98.90
47779;DHT22;33538;48.432;11.350;2023-12-07T15:37:03;1.80;97.00
47779;DHT22;33538;48.432;11.350;2023-12-07T15:39:31;1.80;96.60